Avon Park, Florida
Current Conditions -  °F | °C
As of 11:50 AM on Friday 19 Dec 2014 (Local Time) from KBOW Reporting Station
Broken Clouds Broken Clouds  
Wind Chill: 66°   Ceiling: 20000
Heat Index: 66°   Visibility: 10mi
Dew Point: 46°   Wind: 5mph
Humidity: 49%   Direction: 60°ENE
Pressure: 30.14"   Gusts: NA
Location:  27.6°N, 81.51°W
Report Text: KBOW 191650Z 06004KT 10SM BKN200 19/08 A3014
Loading
Personal Weather Stations






























Interactive Weather Map New forecast layout! Learn more

10-Day Weather Forecast

Advertisements
Track Severe Weather on mobile